sensor_id;sensor_type;location;lat;lon;timestamp;temperature;humidity
1766;DHT22;880;52.452;8.656;2022-09-09T00:00:14;15.00;99.90
1766;DHT22;880;52.452;8.656;2022-09-09T00:03:10;15.00;99.90
1766;DHT22;880;52.452;8.656;2022-09-09T00:06:14;15.10;99.90
1766;DHT22;880;52.452;8.656;2022-09-09T00:09:00;15.10;99.90
1766;DHT22;880;52.452;8.656;2022-09-09T00:11:52;15.10;99.90
1766;DHT22;880;52.452;8.656;2022-09-09T00:14:34;15.10;99.90
1766;DHT22;880;52.452;8.656;2022-09-09T00:17:36;15.00;99.90
1766;DHT22;880;52.452;8.656;2022-09-09T00:22:50;15.00;99.90
1766;DHT22;880;52.452;8.656;2022-09-09T00:26:08;14.90;99.90
1766;DHT22;880;52.452;8.656;2022-09-09T00:31:35;14.90;99.90
1766;DHT22;880;52.452;8.656;2022-09-09T00:34:16;14.90;99.90
1766;DHT22;880;52.452;8.656;2022-09-09T00:36:48;15.00;99.90
1766;DHT22;880;52.452;8.656;2022-09-09T00:42:17;15.10;99.90
1766;DHT22;880;52.452;8.656;2022-09-09T00:45:43;15.10;99.90
1766;DHT22;880;52.452;8.656;2022-09-09T00:48:10;15.10;99.90
1766;DHT22;880;52.452;8.656;2022-09-09T00:50:55;15.10;99.90
1766;DHT22;880;52.452;8.656;2022-09-09T00:56:13;15.20;99.90
1766;DHT22;880;52.452;8.656;2022-09-09T00:58:50;15.10;99.90
1766;DHT22;880;52.452;8.656;2022-09-09T01:01:22;15.10;99.90
1766;DHT22;880;52.452;8.656;2022-09-09T01:03:54;15.00;99.90
1766;DHT22;880;52.452;8.656;2022-09-09T01:06:30;15.00;99.90
1766;DHT22;880;52.452;8.656;2022-09-09T01:09:36;15.00;99.90
1766;DHT22;880;52.452;8.656;2022-09-09T01:15:21;15.00;99.90
1766;DHT22;880;52.452;8.656;2022-09-09T01:18:00;15.00;99.90
1766;DHT22;880;52.452;8.656;2022-09-09T01:26:39;14.90;99.90
1766;DHT22;880;52.452;8.656;2022-09-09T01:29:21;14.90;99.90
1766;DHT22;880;52.452;8.656;2022-09-09T01:32:01;14.80;99.90
1766;DHT22;880;52.452;8.656;2022-09-09T01:34:50;14.80;99.90
1766;DHT22;880;52.452;8.656;2022-09-09T01:37:19;14.80;99.90
1766;DHT22;880;52.452;8.656;2022-09-09T01:39:46;14.80;99.90
1766;DHT22;880;52.452;8.656;2022-09-09T01:42:16;14.80;99.90
1766;DHT22;880;52.452;8.656;2022-09-09T01:44:44;14.80;99.90
1766;DHT22;880;52.452;8.656;2022-09-09T01:47:12;14.80;99.90
1766;DHT22;880;52.452;8.656;2022-09-09T01:50:08;14.80;99.90
1766;DHT22;880;52.452;8.656;2022-09-09T01:52:38;14.80;99.90
1766;DHT22;880;52.452;8.656;2022-09-09T01:55:09;14.70;99.90
1766;DHT22;880;52.452;8.656;2022-09-09T01:57:44;14.80;99.90
1766;DHT22;880;52.452;8.656;2022-09-09T02:00:19;14.70;99.90
1766;DHT22;880;52.452;8.656;2022-09-09T02:03:44;14.80;99.90
1766;DHT22;880;52.452;8.656;2022-09-09T02:06:21;14.70;99.90
1766;DHT22;880;52.452;8.656;2022-09-09T02:09:00;14.70;99.90
1766;DHT22;880;52.452;8.656;2022-09-09T02:11:32;14.70;99.90
1766;DHT22;880;52.452;8.656;2022-09-09T02:14:11;14.70;99.90
1766;DHT22;880;52.452;8.656;2022-09-09T02:16:50;14.70;99.90
1766;DHT22;880;52.452;8.656;2022-09-09T02:19:32;14.70;99.90
1766;DHT22;880;52.452;8.656;2022-09-09T02:22:19;14.70;99.90
1766;DHT22;880;52.452;8.656;2022-09-09T02:24:49;14.70;99.90
1766;DHT22;880;52.452;8.656;2022-09-09T02:27:23;14.70;99.90
1766;DHT22;880;52.452;8.656;2022-09-09T02:29:52;14.70;99.90
1766;DHT22;880;52.452;8.656;2022-09-09T02:32:34;14.70;99.90
1766;DHT22;880;52.452;8.656;2022-09-09T02:35:15;14.80;99.90
1766;DHT22;880;52.452;8.656;2022-09-09T02:37:47;14.80;99.90
1766;DHT22;880;52.452;8.656;2022-09-09T02:40:16;14.80;99.90
1766;DHT22;880;52.452;8.656;2022-09-09T02:42:54;14.80;99.90
1766;DHT22;880;52.452;8.656;2022-09-09T02:45:29;14.80;99.90
1766;DHT22;880;52.452;8.656;2022-09-09T02:48:17;14.90;99.90
1766;DHT22;880;52.452;8.656;2022-09-09T02:53:49;15.00;99.90
1766;DHT22;880;52.452;8.656;2022-09-09T02:56:32;15.10;99.90
1766;DHT22;880;52.452;8.656;2022-09-09T02:59:05;15.00;99.90
1766;DHT22;880;52.452;8.656;2022-09-09T03:01:34;15.10;99.90
1766;DHT22;880;52.452;8.656;2022-09-09T03:04:02;15.10;99.90
1766;DHT22;880;52.452;8.656;2022-09-09T03:06:32;15.10;99.90
1766;DHT22;880;52.452;8.656;2022-09-09T03:09:08;15.20;99.90
1766;DHT22;880;52.452;8.656;2022-09-09T03:11:37;15.20;99.90
1766;DHT22;880;52.452;8.656;2022-09-09T03:14:05;15.20;99.90
1766;DHT22;880;52.452;8.656;2022-09-09T03:16:34;15.20;99.90
1766;DHT22;880;52.452;8.656;2022-09-09T03:19:01;15.20;99.90
1766;DHT22;880;52.452;8.656;2022-09-09T03:21:29;15.20;99.90
1766;DHT22;880;52.452;8.656;2022-09-09T03:23:56;15.20;99.90
1766;DHT22;880;52.452;8.656;2022-09-09T03:26:24;15.20;99.90
1766;DHT22;880;52.452;8.656;2022-09-09T03:28:51;15.20;99.90
1766;DHT22;880;52.452;8.656;2022-09-09T03:31:21;15.20;99.90
1766;DHT22;880;52.452;8.656;2022-09-09T03:33:49;15.20;99.90
1766;DHT22;880;52.452;8.656;2022-09-09T03:36:18;15.20;99.90
1766;DHT22;880;52.452;8.656;2022-09-09T03:38:45;15.20;99.90
1766;DHT22;880;52.452;8.656;2022-09-09T03:41:12;15.20;99.90
1766;DHT22;880;52.452;8.656;2022-09-09T03:43:39;15.20;99.90
1766;DHT22;880;52.452;8.656;2022-09-09T03:46:07;15.20;99.90
1766;DHT22;880;52.452;8.656;2022-09-09T03:48:34;15.20;99.90
1766;DHT22;880;52.452;8.656;2022-09-09T03:51:03;15.20;99.90
1766;DHT22;880;52.452;8.656;2022-09-09T03:53:31;15.30;99.90
1766;DHT22;880;52.452;8.656;2022-09-09T03:56:01;15.30;99.90
1766;DHT22;880;52.452;8.656;2022-09-09T03:58:29;15.20;99.90
1766;DHT22;880;52.452;8.656;2022-09-09T04:01:12;15.30;99.90
1766;DHT22;880;52.452;8.656;2022-09-09T04:03:42;15.30;99.90
1766;DHT22;880;52.452;8.656;2022-09-09T04:06:10;15.30;99.90
1766;DHT22;880;52.452;8.656;2022-09-09T04:08:41;15.30;99.90
1766;DHT22;880;52.452;8.656;2022-09-09T04:11:09;15.30;99.90
1766;DHT22;880;52.452;8.656;2022-09-09T04:13:38;15.30;99.90
1766;DHT22;880;52.452;8.656;2022-09-09T04:16:10;15.30;99.90
1766;DHT22;880;52.452;8.656;2022-09-09T04:18:39;15.30;99.90
1766;DHT22;880;52.452;8.656;2022-09-09T04:21:08;15.40;99.90
1766;DHT22;880;52.452;8.656;2022-09-09T04:23:36;15.40;99.90
1766;DHT22;880;52.452;8.656;2022-09-09T04:26:05;15.40;99.90
1766;DHT22;880;52.452;8.656;2022-09-09T04:28:35;15.40;99.90
1766;DHT22;880;52.452;8.656;2022-09-09T04:31:18;15.50;99.90
1766;DHT22;880;52.452;8.656;2022-09-09T04:33:49;15.50;99.90
1766;DHT22;880;52.452;8.656;2022-09-09T04:36:17;15.50;99.90
1766;DHT22;880;52.452;8.656;2022-09-09T04:38:49;15.50;99.90
1766;DHT22;880;52.452;8.656;2022-09-09T04:41:16;15.50;99.90
1766;DHT22;880;52.452;8.656;2022-09-09T04:43:46;15.50;99.90
1766;DHT22;880;52.452;8.656;2022-09-09T04:46:14;15.50;99.90
1766;DHT22;880;52.452;8.656;2022-09-09T04:48:44;15.50;99.90
1766;DHT22;880;52.452;8.656;2022-09-09T04:51:13;15.50;99.90
1766;DHT22;880;52.452;8.656;2022-09-09T04:53:41;15.50;99.90
1766;DHT22;880;52.452;8.656;2022-09-09T04:56:12;15.50;99.90
1766;DHT22;880;52.452;8.656;2022-09-09T04:58:48;15.40;99.90
1766;DHT22;880;52.452;8.656;2022-09-09T05:01:18;15.50;99.90
1766;DHT22;880;52.452;8.656;2022-09-09T05:03:48;15.50;99.90
1766;DHT22;880;52.452;8.656;2022-09-09T05:06:20;15.40;99.90
1766;DHT22;880;52.452;8.656;2022-09-09T05:08:52;15.40;99.90
1766;DHT22;880;52.452;8.656;2022-09-09T05:11:25;15.40;99.90
1766;DHT22;880;52.452;8.656;2022-09-09T05:14:00;15.40;99.90
1766;DHT22;880;52.452;8.656;2022-09-09T05:16:29;15.40;99.90
1766;DHT22;880;52.452;8.656;2022-09-09T05:18:57;15.40;99.90
1766;DHT22;880;52.452;8.656;2022-09-09T05:21:32;15.40;99.90
1766;DHT22;880;52.452;8.656;2022-09-09T05:24:00;15.40;99.90
1766;DHT22;880;52.452;8.656;2022-09-09T05:26:27;15.40;99.90
1766;DHT22;880;52.452;8.656;2022-09-09T05:28:56;15.40;99.90
1766;DHT22;880;52.452;8.656;2022-09-09T05:31:26;15.40;99.90
1766;DHT22;880;52.452;8.656;2022-09-09T05:33:55;15.40;99.90
1766;DHT22;880;52.452;8.656;2022-09-09T05:36:22;15.50;99.90
1766;DHT22;880;52.452;8.656;2022-09-09T05:38:54;15.50;99.90
1766;DHT22;880;52.452;8.656;2022-09-09T05:41:21;15.60;99.90
1766;DHT22;880;52.452;8.656;2022-09-09T05:43:52;15.60;99.90
1766;DHT22;880;52.452;8.656;2022-09-09T05:46:22;15.60;99.90
1766;DHT22;880;52.452;8.656;2022-09-09T05:48:52;15.60;99.90
1766;DHT22;880;52.452;8.656;2022-09-09T05:51:27;15.60;99.90
1766;DHT22;880;52.452;8.656;2022-09-09T05:53:58;15.60;99.90
1766;DHT22;880;52.452;8.656;2022-09-09T05:56:29;15.60;99.90
1766;DHT22;880;52.452;8.656;2022-09-09T05:58:58;15.60;99.90
1766;DHT22;880;52.452;8.656;2022-09-09T06:01:32;15.60;99.90
1766;DHT22;880;52.452;8.656;2022-09-09T06:04:02;15.60;99.90
1766;DHT22;880;52.452;8.656;2022-09-09T06:06:33;15.70;99.90
1766;DHT22;880;52.452;8.656;2022-09-09T06:09:07;15.70;99.90
1766;DHT22;880;52.452;8.656;2022-09-09T06:11:40;15.70;99.90
1766;DHT22;880;52.452;8.656;2022-09-09T06:14:08;15.80;99.90
1766;DHT22;880;52.452;8.656;2022-09-09T06:16:37;15.70;99.90
1766;DHT22;880;52.452;8.656;2022-09-09T06:19:11;15.80;99.90
1766;DHT22;880;52.452;8.656;2022-09-09T06:21:39;15.80;99.90
1766;DHT22;880;52.452;8.656;2022-09-09T06:24:08;15.80;99.90
1766;DHT22;880;52.452;8.656;2022-09-09T06:26:37;15.90;99.90
1766;DHT22;880;52.452;8.656;2022-09-09T06:29:11;15.90;99.90
1766;DHT22;880;52.452;8.656;2022-09-09T06:31:40;16.00;99.90
1766;DHT22;880;52.452;8.656;2022-09-09T06:34:17;16.30;99.90
1766;DHT22;880;52.452;8.656;2022-09-09T06:36:48;16.60;99.90
1766;DHT22;880;52.452;8.656;2022-09-09T06:39:16;16.70;99.90
1766;DHT22;880;52.452;8.656;2022-09-09T06:41:44;16.90;99.90
1766;DHT22;880;52.452;8.656;2022-09-09T06:44:40;17.00;99.90
1766;DHT22;880;52.452;8.656;2022-09-09T06:47:11;17.00;99.90
1766;DHT22;880;52.452;8.656;2022-09-09T06:49:40;17.10;99.90
1766;DHT22;880;52.452;8.656;2022-09-09T06:52:11;17.10;99.90
1766;DHT22;880;52.452;8.656;2022-09-09T06:54:38;17.10;99.90
1766;DHT22;880;52.452;8.656;2022-09-09T06:57:05;17.10;99.90
1766;DHT22;880;52.452;8.656;2022-09-09T06:59:54;17.10;99.90
1766;DHT22;880;52.452;8.656;2022-09-09T07:02:22;17.20;99.90
1766;DHT22;880;52.452;8.656;2022-09-09T07:04:49;17.30;99.90
1766;DHT22;880;52.452;8.656;2022-09-09T07:07:18;17.30;99.90
1766;DHT22;880;52.452;8.656;2022-09-09T07:09:45;17.30;99.90
1766;DHT22;880;52.452;8.656;2022-09-09T07:12:13;17.20;99.90
1766;DHT22;880;52.452;8.656;2022-09-09T07:14:47;17.20;99.90
1766;DHT22;880;52.452;8.656;2022-09-09T07:17:14;17.20;99.90
1766;DHT22;880;52.452;8.656;2022-09-09T07:19:41;17.20;99.90
1766;DHT22;880;52.452;8.656;2022-09-09T07:22:09;17.20;99.90
1766;DHT22;880;52.452;8.656;2022-09-09T07:24:37;17.20;99.90
1766;DHT22;880;52.452;8.656;2022-09-09T07:27:06;17.20;99.90
1766;DHT22;880;52.452;8.656;2022-09-09T07:29:34;17.10;99.90
1766;DHT22;880;52.452;8.656;2022-09-09T07:32:02;17.10;99.90
1766;DHT22;880;52.452;8.656;2022-09-09T07:34:34;17.20;99.90
1766;DHT22;880;52.452;8.656;2022-09-09T07:37:01;17.20;99.90
1766;DHT22;880;52.452;8.656;2022-09-09T07:39:29;17.20;99.90
1766;DHT22;880;52.452;8.656;2022-09-09T07:41:56;17.20;99.90
1766;DHT22;880;52.452;8.656;2022-09-09T07:44:26;17.30;99.90
1766;DHT22;880;52.452;8.656;2022-09-09T07:46:59;17.30;99.90
1766;DHT22;880;52.452;8.656;2022-09-09T07:49:33;17.40;99.90
1766;DHT22;880;52.452;8.656;2022-09-09T07:52:02;17.50;99.90
1766;DHT22;880;52.452;8.656;2022-09-09T07:54:30;17.50;99.90
1766;DHT22;880;52.452;8.656;2022-09-09T07:57:00;17.60;99.90
1766;DHT22;880;52.452;8.656;2022-09-09T07:59:29;17.50;99.90
1766;DHT22;880;52.452;8.656;2022-09-09T08:01:57;17.60;99.90
1766;DHT22;880;52.452;8.656;2022-09-09T08:04:27;17.70;99.90
1766;DHT22;880;52.452;8.656;2022-09-09T08:06:58;17.70;99.90
1766;DHT22;880;52.452;8.656;2022-09-09T08:09:27;17.80;99.90
1766;DHT22;880;52.452;8.656;2022-09-09T08:12:05;17.80;99.90
1766;DHT22;880;52.452;8.656;2022-09-09T08:14:35;18.00;99.90
1766;DHT22;880;52.452;8.656;2022-09-09T08:17:02;18.00;99.90
1766;DHT22;880;52.452;8.656;2022-09-09T08:19:31;18.10;99.90
1766;DHT22;880;52.452;8.656;2022-09-09T08:22:07;18.10;99.90
1766;DHT22;880;52.452;8.656;2022-09-09T08:24:37;18.20;99.90
1766;DHT22;880;52.452;8.656;2022-09-09T08:27:04;18.30;99.90
1766;DHT22;880;52.452;8.656;2022-09-09T08:29:31;18.40;99.90
1766;DHT22;880;52.452;8.656;2022-09-09T08:31:58;18.60;99.90
1766;DHT22;880;52.452;8.656;2022-09-09T08:34:27;18.60;99.90
1766;DHT22;880;52.452;8.656;2022-09-09T08:36:57;18.70;99.90
1766;DHT22;880;52.452;8.656;2022-09-09T08:39:33;18.80;99.90
1766;DHT22;880;52.452;8.656;2022-09-09T08:50:42;19.10;99.90
1766;DHT22;880;52.452;8.656;2022-09-09T08:53:26;19.10;99.90
1766;DHT22;880;52.452;8.656;2022-09-09T08:56:02;19.20;99.90
1766;DHT22;880;52.452;8.656;2022-09-09T08:59:00;19.30;99.90
1766;DHT22;880;52.452;8.656;2022-09-09T09:04:52;19.50;99.90
1766;DHT22;880;52.452;8.656;2022-09-09T09:10:47;19.50;99.90
1766;DHT22;880;52.452;8.656;2022-09-09T09:13:32;19.40;99.90
1766;DHT22;880;52.452;8.656;2022-09-09T09:18:51;19.20;99.90
1766;DHT22;880;52.452;8.656;2022-09-09T09:24:01;19.20;99.90
1766;DHT22;880;52.452;8.656;2022-09-09T09:26:34;19.30;99.90
1766;DHT22;880;52.452;8.656;2022-09-09T09:29:18;19.30;99.90
1766;DHT22;880;52.452;8.656;2022-09-09T09:31:52;19.40;99.90
1766;DHT22;880;52.452;8.656;2022-09-09T09:34:24;19.40;99.90
1766;DHT22;880;52.452;8.656;2022-09-09T09:36:59;19.50;99.90
1766;DHT22;880;52.452;8.656;2022-09-09T09:39:32;19.60;99.90
1766;DHT22;880;52.452;8.656;2022-09-09T09:42:23;19.70;99.90
1766;DHT22;880;52.452;8.656;2022-09-09T09:44:55;19.90;99.90
1766;DHT22;880;52.452;8.656;2022-09-09T09:47:22;20.20;99.90
1766;DHT22;880;52.452;8.656;2022-09-09T09:50:19;20.60;99.90
1766;DHT22;880;52.452;8.656;2022-09-09T09:52:55;20.90;99.90
1766;DHT22;880;52.452;8.656;2022-09-09T09:55:25;20.90;99.90
1766;DHT22;880;52.452;8.656;2022-09-09T09:57:52;21.20;99.90
1766;DHT22;880;52.452;8.656;2022-09-09T10:00:25;21.20;99.90
1766;DHT22;880;52.452;8.656;2022-09-09T10:03:01;21.20;99.90
1766;DHT22;880;52.452;8.656;2022-09-09T10:05:31;21.10;99.90
1766;DHT22;880;52.452;8.656;2022-09-09T10:08:11;20.90;99.90
1766;DHT22;880;52.452;8.656;2022-09-09T10:13:48;20.90;99.90
1766;DHT22;880;52.452;8.656;2022-09-09T10:16:56;20.80;99.90
1766;DHT22;880;52.452;8.656;2022-09-09T10:19:37;20.70;99.90
1766;DHT22;880;52.452;8.656;2022-09-09T10:25:14;20.30;99.90
1766;DHT22;880;52.452;8.656;2022-09-09T10:40:38;20.20;99.90
1766;DHT22;880;52.452;8.656;2022-09-09T10:43:20;20.20;99.90
1766;DHT22;880;52.452;8.656;2022-09-09T10:46:40;20.10;99.90
1766;DHT22;880;52.452;8.656;2022-09-09T10:52:15;20.10;99.90
1766;DHT22;880;52.452;8.656;2022-09-09T10:57:39;20.10;99.90
1766;DHT22;880;52.452;8.656;2022-09-09T11:00:43;20.20;99.90
1766;DHT22;880;52.452;8.656;2022-09-09T11:03:26;20.50;99.90
1766;DHT22;880;52.452;8.656;2022-09-09T11:06:04;20.80;99.90
1766;DHT22;880;52.452;8.656;2022-09-09T11:08:38;20.90;99.90
1766;DHT22;880;52.452;8.656;2022-09-09T11:11:39;21.00;99.90
1766;DHT22;880;52.452;8.656;2022-09-09T11:14:14;21.00;99.90
1766;DHT22;880;52.452;8.656;2022-09-09T11:16:53;21.40;99.90
1766;DHT22;880;52.452;8.656;2022-09-09T11:19:30;21.80;99.90
1766;DHT22;880;52.452;8.656;2022-09-09T11:25:10;22.60;99.90
1766;DHT22;880;52.452;8.656;2022-09-09T11:30:27;23.30;99.90
1766;DHT22;880;52.452;8.656;2022-09-09T11:36:48;23.40;99.90
1766;DHT22;880;52.452;8.656;2022-09-09T11:42:27;23.20;99.90
1766;DHT22;880;52.452;8.656;2022-09-09T11:44:54;23.00;99.90
1766;DHT22;880;52.452;8.656;2022-09-09T11:47:28;22.70;99.90
1766;DHT22;880;52.452;8.656;2022-09-09T11:52:44;22.80;99.90
1766;DHT22;880;52.452;8.656;2022-09-09T11:58:25;23.20;99.90
1766;DHT22;880;52.452;8.656;2022-09-09T12:00:52;23.10;99.90
1766;DHT22;880;52.452;8.656;2022-09-09T12:09:06;23.00;99.90
1766;DHT22;880;52.452;8.656;2022-09-09T12:11:50;22.90;99.90
1766;DHT22;880;52.452;8.656;2022-09-09T12:14:22;22.80;99.90
1766;DHT22;880;52.452;8.656;2022-09-09T12:19:41;23.00;99.90
1766;DHT22;880;52.452;8.656;2022-09-09T12:22:29;22.90;99.90
1766;DHT22;880;52.452;8.656;2022-09-09T12:30:24;22.90;99.90
1766;DHT22;880;52.452;8.656;2022-09-09T12:33:10;23.10;99.90
1766;DHT22;880;52.452;8.656;2022-09-09T12:35:41;23.10;99.90
1766;DHT22;880;52.452;8.656;2022-09-09T12:38:15;22.90;99.90
1766;DHT22;880;52.452;8.656;2022-09-09T12:40:56;22.90;99.90
1766;DHT22;880;52.452;8.656;2022-09-09T12:43:26;22.90;99.90
1766;DHT22;880;52.452;8.656;2022-09-09T12:48:44;23.50;99.90
1766;DHT22;880;52.452;8.656;2022-09-09T12:51:24;23.60;99.90
1766;DHT22;880;52.452;8.656;2022-09-09T12:53:55;23.60;99.90
1766;DHT22;880;52.452;8.656;2022-09-09T12:56:25;23.80;99.90
1766;DHT22;880;52.452;8.656;2022-09-09T12:58:56;23.50;99.90
1766;DHT22;880;52.452;8.656;2022-09-09T13:01:29;23.40;99.90
1766;DHT22;880;52.452;8.656;2022-09-09T13:03:57;23.30;99.90
1766;DHT22;880;52.452;8.656;2022-09-09T13:06:27;23.20;99.90
1766;DHT22;880;52.452;8.656;2022-09-09T13:08:58;23.20;99.90
1766;DHT22;880;52.452;8.656;2022-09-09T13:11:30;23.30;99.90
1766;DHT22;880;52.452;8.656;2022-09-09T13:14:00;23.20;99.90
1766;DHT22;880;52.452;8.656;2022-09-09T13:16:34;23.00;99.90
1766;DHT22;880;52.452;8.656;2022-09-09T13:19:13;23.00;99.90
1766;DHT22;880;52.452;8.656;2022-09-09T13:21:42;22.90;99.90
1766;DHT22;880;52.452;8.656;2022-09-09T13:24:33;22.70;99.90
1766;DHT22;880;52.452;8.656;2022-09-09T13:27:28;22.60;99.90
1766;DHT22;880;52.452;8.656;2022-09-09T13:29:56;22.50;99.90
1766;DHT22;880;52.452;8.656;2022-09-09T13:32:25;22.40;99.90
1766;DHT22;880;52.452;8.656;2022-09-09T13:35:00;22.30;99.90
1766;DHT22;880;52.452;8.656;2022-09-09T13:37:46;22.20;99.90
1766;DHT22;880;52.452;8.656;2022-09-09T13:40:18;22.10;99.90
1766;DHT22;880;52.452;8.656;2022-09-09T13:42:52;22.00;99.90
1766;DHT22;880;52.452;8.656;2022-09-09T13:45:25;22.00;99.90
1766;DHT22;880;52.452;8.656;2022-09-09T13:47:56;22.00;99.90
1766;DHT22;880;52.452;8.656;2022-09-09T13:50:25;22.00;99.90
1766;DHT22;880;52.452;8.656;2022-09-09T13:52:55;22.10;99.90
1766;DHT22;880;52.452;8.656;2022-09-09T13:55:28;22.10;99.90
1766;DHT22;880;52.452;8.656;2022-09-09T13:58:01;22.30;99.90
1766;DHT22;880;52.452;8.656;2022-09-09T14:00:31;22.50;99.90
1766;DHT22;880;52.452;8.656;2022-09-09T14:02:59;22.60;99.90
1766;DHT22;880;52.452;8.656;2022-09-09T14:05:30;22.80;99.90
1766;DHT22;880;52.452;8.656;2022-09-09T14:07:58;23.10;99.90
1766;DHT22;880;52.452;8.656;2022-09-09T14:10:27;23.30;99.90
1766;DHT22;880;52.452;8.656;2022-09-09T14:12:54;23.40;99.90
1766;DHT22;880;52.452;8.656;2022-09-09T14:15:21;23.60;99.90
1766;DHT22;880;52.452;8.656;2022-09-09T14:17:48;23.80;99.90
1766;DHT22;880;52.452;8.656;2022-09-09T14:20:15;23.90;99.90
1766;DHT22;880;52.452;8.656;2022-09-09T14:22:44;24.00;99.90
1766;DHT22;880;52.452;8.656;2022-09-09T14:25:11;24.10;99.90
1766;DHT22;880;52.452;8.656;2022-09-09T14:27:40;24.30;99.90
1766;DHT22;880;52.452;8.656;2022-09-09T14:30:09;24.40;99.90
1766;DHT22;880;52.452;8.656;2022-09-09T14:32:36;24.60;99.90
1766;DHT22;880;52.452;8.656;2022-09-09T14:35:03;24.60;99.90
1766;DHT22;880;52.452;8.656;2022-09-09T14:37:30;24.60;99.90
1766;DHT22;880;52.452;8.656;2022-09-09T14:39:58;24.40;99.90
1766;DHT22;880;52.452;8.656;2022-09-09T14:42:25;24.30;99.90
1766;DHT22;880;52.452;8.656;2022-09-09T14:44:53;23.90;99.90
1766;DHT22;880;52.452;8.656;2022-09-09T14:47:20;23.70;99.90
1766;DHT22;880;52.452;8.656;2022-09-09T14:49:47;23.60;99.90
1766;DHT22;880;52.452;8.656;2022-09-09T14:52:16;23.70;99.90
1766;DHT22;880;52.452;8.656;2022-09-09T14:54:42;23.60;99.90
1766;DHT22;880;52.452;8.656;2022-09-09T14:57:09;23.40;99.90
1766;DHT22;880;52.452;8.656;2022-09-09T14:59:37;23.20;99.90
1766;DHT22;880;52.452;8.656;2022-09-09T15:02:04;23.10;99.90
1766;DHT22;880;52.452;8.656;2022-09-09T15:04:34;23.10;99.90
1766;DHT22;880;52.452;8.656;2022-09-09T15:07:01;23.10;99.90
1766;DHT22;880;52.452;8.656;2022-09-09T15:09:29;23.00;99.90
1766;DHT22;880;52.452;8.656;2022-09-09T15:11:56;22.90;99.90
1766;DHT22;880;52.452;8.656;2022-09-09T15:14:23;22.90;99.90
1766;DHT22;880;52.452;8.656;2022-09-09T15:16:51;22.80;99.90
1766;DHT22;880;52.452;8.656;2022-09-09T15:19:18;22.80;99.90
1766;DHT22;880;52.452;8.656;2022-09-09T15:21:45;22.80;99.90
1766;DHT22;880;52.452;8.656;2022-09-09T15:24:12;22.80;99.90
1766;DHT22;880;52.452;8.656;2022-09-09T15:26:40;22.80;99.90
1766;DHT22;880;52.452;8.656;2022-09-09T15:29:08;22.70;99.90
1766;DHT22;880;52.452;8.656;2022-09-09T15:31:35;22.60;99.90
1766;DHT22;880;52.452;8.656;2022-09-09T15:34:07;22.40;99.90
1766;DHT22;880;52.452;8.656;2022-09-09T15:36:36;22.40;99.90
1766;DHT22;880;52.452;8.656;2022-09-09T15:39:07;22.30;99.90
1766;DHT22;880;52.452;8.656;2022-09-09T15:41:40;22.20;99.90
1766;DHT22;880;52.452;8.656;2022-09-09T15:44:07;22.00;99.90
1766;DHT22;880;52.452;8.656;2022-09-09T15:46:45;21.80;99.90
1766;DHT22;880;52.452;8.656;2022-09-09T15:49:24;21.60;99.90
1766;DHT22;880;52.452;8.656;2022-09-09T15:51:59;21.20;99.90
1766;DHT22;880;52.452;8.656;2022-09-09T15:54:34;20.90;99.90
1766;DHT22;880;52.452;8.656;2022-09-09T15:57:05;20.70;99.90
1766;DHT22;880;52.452;8.656;2022-09-09T15:59:33;20.50;99.90
1766;DHT22;880;52.452;8.656;2022-09-09T16:02:02;20.40;99.90
1766;DHT22;880;52.452;8.656;2022-09-09T16:04:30;20.30;99.90
1766;DHT22;880;52.452;8.656;2022-09-09T16:07:04;20.30;99.90
1766;DHT22;880;52.452;8.656;2022-09-09T16:09:33;20.20;99.90
1766;DHT22;880;52.452;8.656;2022-09-09T16:12:03;20.20;99.90
1766;DHT22;880;52.452;8.656;2022-09-09T16:14:34;20.20;99.90
1766;DHT22;880;52.452;8.656;2022-09-09T16:17:03;20.30;99.90
1766;DHT22;880;52.452;8.656;2022-09-09T16:19:30;20.30;99.90
1766;DHT22;880;52.452;8.656;2022-09-09T16:21:57;20.60;99.90
1766;DHT22;880;52.452;8.656;2022-09-09T16:24:24;20.90;99.90
1766;DHT22;880;52.452;8.656;2022-09-09T16:26:54;21.10;99.90
1766;DHT22;880;52.452;8.656;2022-09-09T16:29:22;21.30;99.90
1766;DHT22;880;52.452;8.656;2022-09-09T16:31:50;21.40;99.90
1766;DHT22;880;52.452;8.656;2022-09-09T16:34:19;21.50;99.90
1766;DHT22;880;52.452;8.656;2022-09-09T16:36:47;21.50;99.90
1766;DHT22;880;52.452;8.656;2022-09-09T16:39:19;21.60;99.90
1766;DHT22;880;52.452;8.656;2022-09-09T16:41:48;21.70;99.90
1766;DHT22;880;52.452;8.656;2022-09-09T16:44:17;21.60;99.90
1766;DHT22;880;52.452;8.656;2022-09-09T16:46:46;21.70;99.90
1766;DHT22;880;52.452;8.656;2022-09-09T16:49:15;21.70;99.90
1766;DHT22;880;52.452;8.656;2022-09-09T16:51:47;21.80;99.90
1766;DHT22;880;52.452;8.656;2022-09-09T16:54:16;21.90;99.90
1766;DHT22;880;52.452;8.656;2022-09-09T16:56:46;22.00;99.90
1766;DHT22;880;52.452;8.656;2022-09-09T16:59:19;22.00;99.90
1766;DHT22;880;52.452;8.656;2022-09-09T17:01:49;21.90;99.90
1766;DHT22;880;52.452;8.656;2022-09-09T17:04:22;21.80;99.90
1766;DHT22;880;52.452;8.656;2022-09-09T17:06:53;21.70;99.90
1766;DHT22;880;52.452;8.656;2022-09-09T17:09:21;21.50;99.90
1766;DHT22;880;52.452;8.656;2022-09-09T17:11:49;21.30;99.90
1766;DHT22;880;52.452;8.656;2022-09-09T17:14:20;21.30;99.90
1766;DHT22;880;52.452;8.656;2022-09-09T17:16:48;21.20;99.90
1766;DHT22;880;52.452;8.656;2022-09-09T17:19:15;21.10;99.90
1766;DHT22;880;52.452;8.656;2022-09-09T17:21:42;21.00;99.90
1766;DHT22;880;52.452;8.656;2022-09-09T17:24:30;20.90;99.90
1766;DHT22;880;52.452;8.656;2022-09-09T17:26:57;20.90;99.90
1766;DHT22;880;52.452;8.656;2022-09-09T17:29:24;20.80;99.90
1766;DHT22;880;52.452;8.656;2022-09-09T17:31:52;20.70;99.90
1766;DHT22;880;52.452;8.656;2022-09-09T17:34:19;20.70;99.90
1766;DHT22;880;52.452;8.656;2022-09-09T17:36:46;20.60;99.90
1766;DHT22;880;52.452;8.656;2022-09-09T17:39:13;20.60;99.90
1766;DHT22;880;52.452;8.656;2022-09-09T17:41:40;20.50;99.90
1766;DHT22;880;52.452;8.656;2022-09-09T17:44:08;20.50;99.90
1766;DHT22;880;52.452;8.656;2022-09-09T17:46:38;20.40;99.90
1766;DHT22;880;52.452;8.656;2022-09-09T17:49:10;20.40;99.90
1766;DHT22;880;52.452;8.656;2022-09-09T17:51:42;20.30;99.90
1766;DHT22;880;52.452;8.656;2022-09-09T17:54:12;20.20;99.90
1766;DHT22;880;52.452;8.656;2022-09-09T17:56:41;20.20;99.90
1766;DHT22;880;52.452;8.656;2022-09-09T17:59:10;20.10;99.90
1766;DHT22;880;52.452;8.656;2022-09-09T18:01:41;20.10;99.90
1766;DHT22;880;52.452;8.656;2022-09-09T18:04:12;20.10;99.90
1766;DHT22;880;52.452;8.656;2022-09-09T18:06:45;20.00;99.90
1766;DHT22;880;52.452;8.656;2022-09-09T18:09:22;19.90;99.90
1766;DHT22;880;52.452;8.656;2022-09-09T18:11:53;19.80;99.90
1766;DHT22;880;52.452;8.656;2022-09-09T18:14:25;19.70;99.90
1766;DHT22;880;52.452;8.656;2022-09-09T18:16:58;19.60;99.90
1766;DHT22;880;52.452;8.656;2022-09-09T18:19:27;19.50;99.90
1766;DHT22;880;52.452;8.656;2022-09-09T18:21:56;19.50;99.90
1766;DHT22;880;52.452;8.656;2022-09-09T18:24:28;19.60;99.90
1766;DHT22;880;52.452;8.656;2022-09-09T18:26:55;19.60;99.90
1766;DHT22;880;52.452;8.656;2022-09-09T18:29:23;19.50;99.90
1766;DHT22;880;52.452;8.656;2022-09-09T18:31:52;19.50;99.90
1766;DHT22;880;52.452;8.656;2022-09-09T18:34:20;19.40;99.90
1766;DHT22;880;52.452;8.656;2022-09-09T18:36:49;19.30;99.90